Time;durP1;ratioP1;P1;durP2;ratioP2;P2;SDS_P1;SDS_P2;PMS_P1;PMS_P2;Temp;Humidity;BMP_temperature;BMP_pressure;BME280_temperature;BME280_humidity;BME280_pressure;Samples;Min_cycle;Max_cycle;Signal;HPM_P1;HPM_P2
2024/02/18 00:01:39;;;;;;;7.70;7.00;;;9.90;99.90;;;;;;4995363;28;20410;-71
2024/02/18 00:04:04;;;;;;;8.07;6.90;;;10.00;99.90;;;;;;4994719;28;20931;-70
2024/02/18 00:06:30;;;;;;;11.83;8.00;;;10.10;99.90;;;;;;4995215;28;20198;-71
2024/02/18 00:08:55;;;;;;;10.20;7.27;;;10.00;99.90;;;;;;4995210;28;20692;-70
2024/02/18 00:11:21;;;;;;;10.67;7.80;;;10.00;99.90;;;;;;4993974;28;20640;-71
2024/02/18 00:13:46;;;;;;;6.43;5.73;;;10.00;99.90;;;;;;4995107;28;20202;-70
2024/02/18 00:16:12;;;;;;;8.37;7.57;;;10.00;99.90;;;;;;4995407;28;20169;-71
2024/02/18 00:18:37;;;;;;;11.07;7.13;;;10.00;99.90;;;;;;4994833;28;20695;-70
2024/02/18 00:21:04;;;;;;;9.83;6.40;;;10.00;99.90;;;;;;4995620;28;20204;-70
2024/02/18 00:23:29;;;;;;;11.40;8.30;;;9.90;99.90;;;;;;4995269;28;20202;-70
2024/02/18 00:25:55;;;;;;;7.80;5.60;;;10.00;99.90;;;;;;4994851;28;20419;-71
2024/02/18 00:28:21;;;;;;;9.67;7.00;;;10.10;99.90;;;;;;4994937;28;20205;-71
2024/02/18 00:30:50;;;;;;;9.20;7.27;;;10.30;99.90;;;;;;4994966;28;20481;-71
2024/02/18 00:33:17;;;;;;;10.47;6.90;;;10.30;99.90;;;;;;4995165;28;20453;-72
2024/02/18 00:35:42;;;;;;;6.80;6.10;;;10.20;99.90;;;;;;4994736;28;20433;-72
2024/02/18 00:38:08;;;;;;;7.10;5.93;;;10.30;99.90;;;;;;4994805;28;20462;-71
2024/02/18 00:40:34;;;;;;;9.13;6.50;;;10.40;99.90;;;;;;4995276;28;20208;-71
2024/02/18 00:42:59;;;;;;;10.43;7.53;;;10.40;99.90;;;;;;4994910;28;20611;-71
2024/02/18 00:45:25;;;;;;;7.53;6.63;;;10.40;99.90;;;;;;4994821;28;20227;-71
2024/02/18 00:47:50;;;;;;;11.20;8.50;;;10.40;99.90;;;;;;4994431;28;20282;-71
2024/02/18 00:50:16;;;;;;;7.10;5.80;;;10.20;99.90;;;;;;4994661;28;20209;-71
2024/02/18 00:52:42;;;;;;;9.33;6.20;;;10.30;99.90;;;;;;4994499;28;20227;-71
2024/02/18 00:55:08;;;;;;;7.97;6.10;;;10.30;99.90;;;;;;4994879;28;20244;-71
2024/02/18 00:57:34;;;;;;;6.70;5.90;;;10.40;99.90;;;;;;4994417;28;20279;-72
2024/02/18 00:59:59;;;;;;;7.60;6.20;;;10.40;99.90;;;;;;4993264;28;20495;-71
2024/02/18 01:02:29;;;;;;;7.30;6.47;;;10.40;99.90;;;;;;4994622;28;20183;-71
2024/02/18 01:04:58;;;;;;;6.83;6.17;;;10.50;99.90;;;;;;4993386;28;20670;-71
2024/02/18 01:07:23;;;;;;;9.47;5.70;;;10.40;99.90;;;;;;4994782;28;20454;-71
2024/02/18 01:09:52;;;;;;;6.87;6.27;;;10.30;99.90;;;;;;4994439;28;20509;-71
2024/02/18 01:12:18;;;;;;;8.07;5.90;;;10.40;99.90;;;;;;4996000;28;20633;-70
2024/02/18 01:14:44;;;;;;;9.93;6.90;;;10.40;99.90;;;;;;4994621;28;20411;-71
2024/02/18 01:17:10;;;;;;;8.63;5.67;;;10.40;99.90;;;;;;4994553;28;20951;-70
2024/02/18 01:19:36;;;;;;;7.10;5.43;;;10.50;99.90;;;;;;4994128;28;20171;-71
2024/02/18 01:22:02;;;;;;;9.30;5.73;;;10.50;99.90;;;;;;4993982;28;20217;-71
2024/02/18 01:24:28;;;;;;;9.53;6.30;;;10.50;99.90;;;;;;4994329;28;20418;-70
2024/02/18 01:26:53;;;;;;;8.00;5.77;;;10.50;99.90;;;;;;4993801;28;20458;-69
2024/02/18 01:29:19;;;;;;;5.87;5.20;;;10.50;99.90;;;;;;4994475;28;20226;-71
2024/02/18 01:31:45;;;;;;;10.60;6.70;;;10.40;99.90;;;;;;4994181;28;20660;-70
2024/02/18 01:34:10;;;;;;;8.80;6.73;;;10.50;99.90;;;;;;4994227;28;20697;-70
2024/02/18 01:36:36;;;;;;;9.40;6.17;;;10.40;99.90;;;;;;4993804;28;20177;-71
2024/02/18 01:39:01;;;;;;;8.33;6.13;;;10.30;99.90;;;;;;4993736;28;20196;-71
2024/02/18 01:41:27;;;;;;;6.70;5.33;;;10.40;99.90;;;;;;4993790;28;20256;-71
2024/02/18 01:43:53;;;;;;;7.13;4.63;;;10.40;99.90;;;;;;4994277;28;20183;-70
2024/02/18 01:46:20;;;;;;;8.03;6.73;;;10.40;99.90;;;;;;4993842;28;20599;-71
2024/02/18 01:48:47;;;;;;;6.60;5.90;;;10.40;99.90;;;;;;4993551;28;20426;-70
2024/02/18 01:51:13;;;;;;;7.23;6.53;;;10.30;99.90;;;;;;4993873;28;20461;-71
2024/02/18 01:53:40;;;;;;;7.50;6.10;;;10.30;99.90;;;;;;4993551;28;20438;-72
2024/02/18 01:56:06;;;;;;;5.87;5.37;;;10.40;99.90;;;;;;4993568;28;20412;-70
2024/02/18 01:58:33;;;;;;;7.40;5.50;;;10.30;99.90;;;;;;4993461;28;20426;-71
2024/02/18 02:00:58;;;;;;;6.70;6.10;;;10.40;99.90;;;;;;4993533;28;20409;-71
2024/02/18 02:03:25;;;;;;;6.77;6.03;;;10.30;99.90;;;;;;4993794;28;20920;-71
2024/02/18 02:05:52;;;;;;;7.33;5.97;;;10.30;99.90;;;;;;4993506;28;20644;-71
2024/02/18 02:08:18;;;;;;;10.73;7.53;;;10.30;99.90;;;;;;4993341;28;20455;-71
2024/02/18 02:10:43;;;;;;;5.80;5.27;;;10.30;99.90;;;;;;4993685;28;20412;-70
2024/02/18 02:13:09;;;;;;;6.27;5.60;;;10.30;99.90;;;;;;4993493;28;20542;-71
2024/02/18 02:15:35;;;;;;;9.33;6.57;;;10.30;99.90;;;;;;4993690;28;20259;-71
2024/02/18 02:18:00;;;;;;;8.13;6.37;;;10.10;99.90;;;;;;4993305;28;20242;-71
2024/02/18 02:20:27;;;;;;;8.93;6.83;;;10.20;99.90;;;;;;4993325;28;20174;-71
2024/02/18 02:22:53;;;;;;;7.17;6.30;;;10.20;99.90;;;;;;4993567;28;20179;-70
2024/02/18 02:25:18;;;;;;;7.90;6.63;;;10.20;99.90;;;;;;4993456;28;20410;-71
2024/02/18 02:27:48;;;;;;;6.83;6.03;;;10.20;99.90;;;;;;4996536;28;20205;-72
2024/02/18 02:30:14;;;;;;;7.63;6.83;;;10.20;99.90;;;;;;4997650;28;20173;-72
2024/02/18 02:32:40;;;;;;;10.83;7.40;;;10.20;99.90;;;;;;4997508;28;20485;-72
2024/02/18 02:35:06;;;;;;;7.57;6.87;;;10.10;99.90;;;;;;4997306;28;20171;-72
2024/02/18 02:37:32;;;;;;;8.57;7.77;;;10.00;99.90;;;;;;4996920;28;20191;-72
2024/02/18 02:39:57;;;;;;;8.40;7.43;;;9.90;99.90;;;;;;4996915;28;20414;-72
2024/02/18 02:42:23;;;;;;;10.73;8.23;;;9.90;99.90;;;;;;4996915;28;20193;-72
2024/02/18 02:44:49;;;;;;;10.47;8.13;;;9.90;99.90;;;;;;4997069;28;20551;-72
2024/02/18 02:47:14;;;;;;;8.67;6.83;;;9.80;99.90;;;;;;4996605;28;20197;-72
2024/02/18 02:49:40;;;;;;;10.67;9.10;;;9.70;99.90;;;;;;4997786;28;20203;-71
2024/02/18 02:52:05;;;;;;;9.50;8.50;;;9.70;99.90;;;;;;4996965;28;20178;-71
2024/02/18 02:54:31;;;;;;;8.10;7.30;;;9.50;99.90;;;;;;4996653;28;20622;-72
2024/02/18 02:56:57;;;;;;;11.23;8.40;;;9.60;99.90;;;;;;4996792;28;20174;-71
2024/02/18 02:59:23;;;;;;;11.10;9.47;;;9.50;99.90;;;;;;4996543;28;20230;-71
2024/02/18 03:01:48;;;;;;;14.73;10.27;;;9.50;99.90;;;;;;4996617;28;20523;-72
2024/02/18 03:04:14;;;;;;;8.20;7.17;;;9.50;99.90;;;;;;4995279;28;20420;-72
2024/02/18 03:06:39;;;;;;;11.97;10.77;;;9.50;99.90;;;;;;4996393;28;20189;-73
2024/02/18 03:09:05;;;;;;;12.70;9.17;;;9.30;99.90;;;;;;4996326;28;20194;-72
2024/02/18 03:11:30;;;;;;;11.40;10.23;;;9.20;99.90;;;;;;4996668;28;20178;-72
2024/02/18 03:13:56;;;;;;;10.37;9.33;;;9.10;99.90;;;;;;4995105;28;20241;-71
2024/02/18 03:16:21;;;;;;;10.40;9.27;;;9.20;99.90;;;;;;4996620;28;20173;-71
2024/02/18 03:18:47;;;;;;;11.60;10.30;;;9.10;99.90;;;;;;4996137;28;20685;-71
2024/02/18 03:21:13;;;;;;;11.07;9.73;;;9.10;99.90;;;;;;4996464;28;20169;-72
2024/02/18 03:23:39;;;;;;;13.00;9.93;;;9.10;99.90;;;;;;4996247;28;20174;-71
2024/02/18 03:26:04;;;;;;;12.10;9.23;;;8.90;99.90;;;;;;4996396;28;20302;-72
2024/02/18 03:28:30;;;;;;;11.13;9.97;;;8.80;99.90;;;;;;4996145;28;20451;-72
2024/02/18 03:30:55;;;;;;;12.20;9.90;;;8.80;99.90;;;;;;4996557;28;20250;-72
2024/02/18 03:33:21;;;;;;;14.43;11.43;;;8.80;99.90;;;;;;4995929;28;20173;-72
2024/02/18 03:35:46;;;;;;;13.47;11.60;;;8.80;99.90;;;;;;4996500;28;20166;-72
2024/02/18 03:38:13;;;;;;;12.17;10.93;;;8.70;99.90;;;;;;4994486;28;20772;-72
2024/02/18 03:40:40;;;;;;;15.10;13.33;;;8.70;99.90;;;;;;4995930;28;20658;-71
2024/02/18 03:43:06;;;;;;;15.50;12.03;;;8.60;99.90;;;;;;4995813;28;20417;-71
2024/02/18 03:45:31;;;;;;;17.23;12.20;;;8.60;99.90;;;;;;4996169;28;20411;-72
2024/02/18 03:47:58;;;;;;;10.00;9.00;;;8.60;99.90;;;;;;4995547;28;20705;-71
2024/02/18 03:50:23;;;;;;;14.00;11.20;;;8.70;99.90;;;;;;4995591;28;20186;-71
2024/02/18 03:52:49;;;;;;;14.27;11.17;;;8.70;99.90;;;;;;4995688;28;20404;-72
2024/02/18 03:55:15;;;;;;;11.90;10.20;;;8.70;99.90;;;;;;4994360;28;20269;-72
2024/02/18 03:57:42;;;;;;;10.80;9.70;;;8.80;99.90;;;;;;4995500;28;20201;-71
2024/02/18 04:00:10;;;;;;;12.57;11.37;;;8.80;99.90;;;;;;4995765;28;20414;-72
2024/02/18 04:02:40;;;;;;;15.40;12.20;;;8.80;99.90;;;;;;4996072;28;20411;-71
2024/02/18 04:05:07;;;;;;;15.53;13.07;;;8.80;99.90;;;;;;4995742;28;20905;-71
2024/02/18 04:07:34;;;;;;;11.47;10.27;;;8.70;99.90;;;;;;4995504;28;21054;-72
2024/02/18 04:10:00;;;;;;;15.40;12.80;;;8.70;99.90;;;;;;4994022;28;20416;-73
2024/02/18 04:12:26;;;;;;;11.40;10.30;;;8.80;99.90;;;;;;4995274;28;20893;-72
2024/02/18 04:14:51;;;;;;;14.17;11.00;;;8.70;99.90;;;;;;4995309;28;20454;-71
2024/02/18 04:17:17;;;;;;;18.17;12.20;;;8.70;99.90;;;;;;4995003;28;20213;-72
2024/02/18 04:19:42;;;;;;;11.90;10.57;;;8.70;99.90;;;;;;4995488;28;20162;-71
2024/02/18 04:22:08;;;;;;;12.07;10.77;;;8.60;99.90;;;;;;4995355;28;20184;-72
2024/02/18 04:24:33;;;;;;;16.23;11.80;;;8.60;99.90;;;;;;4995781;28;20267;-72
2024/02/18 04:27:09;;;;;;;14.10;12.60;;;8.60;99.90;;;;;;4995381;28;20588;-73
2024/02/18 04:29:36;;;;;;;14.37;11.47;;;8.60;99.90;;;;;;4995421;28;20187;-72
2024/02/18 04:32:02;;;;;;;12.57;11.17;;;8.60;99.90;;;;;;4995960;28;20406;-71
2024/02/18 04:34:28;;;;;;;15.03;13.23;;;8.60;99.90;;;;;;4995024;28;20492;-73
2024/02/18 04:36:53;;;;;;;15.33;10.37;;;8.60;99.90;;;;;;4995090;28;20409;-70
2024/02/18 04:39:19;;;;;;;13.40;11.70;;;8.50;99.90;;;;;;4994882;28;20182;-71
2024/02/18 04:41:44;;;;;;;10.63;9.63;;;8.50;99.90;;;;;;4995402;28;20593;-71
2024/02/18 04:44:10;;;;;;;15.97;12.43;;;8.40;99.90;;;;;;4996223;28;20216;-72
2024/02/18 04:46:35;;;;;;;16.10;13.50;;;8.30;99.90;;;;;;4998019;28;20204;-72
2024/02/18 04:49:02;;;;;;;14.00;12.57;;;8.30;99.90;;;;;;4995047;28;20204;-72
2024/02/18 04:51:28;;;;;;;16.37;13.70;;;8.30;99.90;;;;;;4995058;28;20184;-72
2024/02/18 04:53:54;;;;;;;18.13;14.63;;;8.30;99.90;;;;;;4995046;28;20462;-72
2024/02/18 04:56:20;;;;;;;15.50;10.53;;;8.30;99.90;;;;;;4995221;28;20179;-72
2024/02/18 04:58:46;;;;;;;17.37;13.57;;;8.20;99.90;;;;;;4993339;28;20232;-70
2024/02/18 05:01:11;;;;;;;15.20;13.27;;;8.10;99.90;;;;;;4994256;28;20945;-72
2024/02/18 05:03:37;;;;;;;14.07;12.23;;;8.20;99.90;;;;;;4994353;28;20182;-71
2024/02/18 05:06:07;;;;;;;14.83;13.30;;;8.20;99.90;;;;;;4994393;28;20644;-72
2024/02/18 05:08:33;;;;;;;16.10;13.70;;;8.20;99.90;;;;;;4994334;28;20200;-73
2024/02/18 05:10:58;;;;;;;15.23;13.60;;;8.20;99.90;;;;;;4994743;28;20420;-71
2024/02/18 05:13:24;;;;;;;14.93;12.10;;;8.10;99.90;;;;;;4994211;28;20199;-72
2024/02/18 05:15:51;;;;;;;13.93;12.20;;;8.10;99.90;;;;;;4994136;28;20165;-72
2024/02/18 05:18:18;;;;;;;14.33;12.77;;;8.10;99.90;;;;;;4994562;28;20223;-71
2024/02/18 05:20:44;;;;;;;16.80;14.23;;;8.10;99.90;;;;;;4994349;28;20412;-70
2024/02/18 05:23:11;;;;;;;15.63;13.73;;;8.00;99.90;;;;;;4994068;28;20485;-71
2024/02/18 05:25:38;;;;;;;15.80;12.57;;;7.90;99.90;;;;;;4994250;28;20171;-71
2024/02/18 05:28:07;;;;;;;14.87;13.20;;;7.90;99.90;;;;;;4993774;28;20458;-71
2024/02/18 05:30:33;;;;;;;15.57;13.70;;;7.90;99.90;;;;;;4993897;28;20945;-70
2024/02/18 05:32:59;;;;;;;15.57;13.13;;;7.90;99.90;;;;;;4993942;28;20412;-70
2024/02/18 05:35:24;;;;;;;20.80;15.70;;;7.80;99.90;;;;;;4993845;28;20168;-70
2024/02/18 05:37:51;;;;;;;16.80;14.10;;;7.80;99.90;;;;;;4993681;28;20257;-71
2024/02/18 05:40:16;;;;;;;15.93;14.13;;;7.70;99.90;;;;;;4994022;28;20556;-71
2024/02/18 05:42:42;;;;;;;17.67;15.17;;;7.70;99.90;;;;;;4993714;28;20502;-70
2024/02/18 05:45:08;;;;;;;17.40;13.77;;;7.70;99.90;;;;;;4993669;28;20203;-71
2024/02/18 05:47:33;;;;;;;17.80;15.23;;;7.70;99.90;;;;;;4993822;28;20215;-71
2024/02/18 05:49:59;;;;;;;18.57;14.40;;;7.60;99.90;;;;;;4993656;28;20426;-71
2024/02/18 05:52:24;;;;;;;18.90;16.43;;;7.70;99.90;;;;;;4993664;28;20183;-71
2024/02/18 05:54:50;;;;;;;15.17;13.40;;;7.70;99.90;;;;;;4992449;28;20172;-71
2024/02/18 05:57:15;;;;;;;18.07;15.00;;;7.70;99.90;;;;;;4993549;28;20554;-71
2024/02/18 05:59:41;;;;;;;16.03;13.17;;;7.60;99.90;;;;;;4992360;28;20614;-71
2024/02/18 06:02:07;;;;;;;16.87;13.97;;;7.60;99.90;;;;;;4994935;28;20554;-70
2024/02/18 06:04:32;;;;;;;19.47;16.50;;;7.50;99.90;;;;;;4998119;28;20584;-70
2024/02/18 06:06:58;;;;;;;18.43;14.57;;;7.50;99.90;;;;;;4997425;28;20275;-70
2024/02/18 06:09:24;;;;;;;14.03;12.40;;;7.50;99.90;;;;;;4997758;28;20168;-70
2024/02/18 06:11:53;;;;;;;17.57;13.23;;;7.50;99.90;;;;;;4997487;28;20172;-70
2024/02/18 06:14:19;;;;;;;19.67;14.20;;;7.50;99.90;;;;;;4997438;28;20259;-71
2024/02/18 06:16:45;;;;;;;19.77;15.63;;;7.50;99.90;;;;;;4997373;28;20910;-70
2024/02/18 06:19:10;;;;;;;17.30;14.67;;;7.40;99.90;;;;;;4997313;28;20435;-70
2024/02/18 06:21:36;;;;;;;15.93;12.70;;;7.30;99.90;;;;;;4997885;28;20197;-70
2024/02/18 06:24:02;;;;;;;15.97;13.60;;;7.30;99.90;;;;;;4996293;28;20270;-70
2024/02/18 06:26:28;;;;;;;22.70;16.40;;;7.30;99.90;;;;;;4997401;28;20179;-71
2024/02/18 06:28:56;;;;;;;18.53;15.60;;;7.20;99.90;;;;;;4997212;28;20247;-70
2024/02/18 06:31:22;;;;;;;20.70;16.97;;;7.30;99.90;;;;;;4997256;28;20839;-71
2024/02/18 06:33:48;;;;;;;20.43;15.80;;;7.40;99.90;;;;;;4997345;28;20496;-71
2024/02/18 06:36:14;;;;;;;22.80;16.60;;;7.40;99.90;;;;;;4997350;28;20559;-71
2024/02/18 06:38:43;;;;;;;17.53;15.57;;;7.40;99.90;;;;;;4996907;28;20566;-70
2024/02/18 06:41:10;;;;;;;20.53;17.43;;;7.40;99.90;;;;;;4996968;28;20409;-70
2024/02/18 06:43:35;;;;;;;20.17;16.43;;;7.50;99.90;;;;;;4996947;28;20415;-71
2024/02/18 06:46:01;;;;;;;24.30;19.67;;;7.50;99.90;;;;;;4996962;28;20913;-70
2024/02/18 06:48:26;;;;;;;22.43;18.13;;;7.50;99.90;;;;;;4995784;28;20212;-71
2024/02/18 06:50:52;;;;;;;21.30;17.07;;;7.50;99.90;;;;;;4997103;28;20258;-71
2024/02/18 06:53:18;;;;;;;23.50;20.50;;;7.50;99.90;;;;;;4996989;28;20600;-71
2024/02/18 06:55:44;;;;;;;21.60;19.30;;;7.60;99.90;;;;;;4996878;28;20169;-71
2024/02/18 06:58:14;;;;;;;21.07;18.80;;;7.60;99.90;;;;;;4996979;28;20805;-70
2024/02/18 07:00:40;;;;;;;21.80;19.20;;;7.60;99.90;;;;;;4997343;28;20419;-72
2024/02/18 07:03:06;;;;;;;19.27;17.17;;;7.70;99.90;;;;;;4996934;28;20902;-71
2024/02/18 07:05:32;;;;;;;20.90;18.70;;;7.80;99.90;;;;;;4996809;28;20192;-70
2024/02/18 07:07:58;;;;;;;24.93;19.30;;;7.90;99.90;;;;;;4996289;28;20460;-71
2024/02/18 07:10:23;;;;;;;20.83;18.07;;;7.90;99.90;;;;;;4996453;28;20403;-71
2024/02/18 07:12:49;;;;;;;20.23;18.00;;;8.10;99.90;;;;;;4996355;28;20925;-70
2024/02/18 07:15:15;;;;;;;19.37;17.33;;;8.10;99.90;;;;;;4995272;28;20179;-71
2024/02/18 07:17:41;;;;;;;20.47;18.30;;;8.10;99.90;;;;;;4996323;28;20306;-71
2024/02/18 07:20:07;;;;;;;20.27;17.13;;;8.20;99.90;;;;;;4996143;28;20178;-70
2024/02/18 07:22:33;;;;;;;20.77;18.53;;;8.30;99.90;;;;;;4996193;28;20419;-72
2024/02/18 07:24:59;;;;;;;16.90;15.20;;;8.40;99.90;;;;;;4996318;28;20519;-71
2024/02/18 07:27:25;;;;;;;18.57;15.50;;;8.40;99.90;;;;;;4995890;28;20215;-70
2024/02/18 07:29:50;;;;;;;20.20;18.10;;;8.60;99.90;;;;;;4996076;28;20502;-71
2024/02/18 07:32:16;;;;;;;17.73;15.93;;;8.60;99.90;;;;;;4996014;28;20184;-71
2024/02/18 07:34:41;;;;;;;19.43;16.70;;;8.80;99.90;;;;;;4996201;28;20686;-71
2024/02/18 07:37:07;;;;;;;19.63;17.10;;;9.00;99.90;;;;;;4995823;28;20201;-71
2024/02/18 07:39:33;;;;;;;16.63;14.70;;;9.00;99.90;;;;;;4996460;28;20178;-71
2024/02/18 07:41:58;;;;;;;15.33;13.73;;;9.10;99.90;;;;;;4995936;28;20176;-71
2024/02/18 07:44:24;;;;;;;15.20;13.77;;;9.10;99.90;;;;;;4996056;28;20663;-72
2024/02/18 07:46:53;;;;;;;15.40;13.80;;;9.10;99.90;;;;;;4995901;28;20209;-72
2024/02/18 07:49:20;;;;;;;16.33;14.63;;;9.10;99.90;;;;;;4996697;28;20185;-71
2024/02/18 07:51:45;;;;;;;15.23;13.63;;;9.00;99.90;;;;;;4996031;28;20455;-71
2024/02/18 07:54:11;;;;;;;15.80;13.93;;;9.10;99.90;;;;;;4995861;28;20438;-71
2024/02/18 07:56:47;;;;;;;17.83;14.57;;;9.00;99.90;;;;;;4995698;28;20735;-71
2024/02/18 07:59:14;;;;;;;14.20;12.60;;;9.00;99.90;;;;;;4995994;28;20186;-71
2024/02/18 08:01:40;;;;;;;15.20;13.70;;;9.20;99.90;;;;;;4996450;28;20501;-71
2024/02/18 08:04:06;;;;;;;14.03;12.50;;;9.40;99.90;;;;;;4996121;28;20502;-71
2024/02/18 08:06:32;;;;;;;14.87;13.27;;;9.50;99.90;;;;;;4996037;28;20464;-71
2024/02/18 08:08:58;;;;;;;15.63;13.57;;;9.70;99.90;;;;;;4995957;28;20914;-71
2024/02/18 08:11:24;;;;;;;13.40;12.00;;;9.80;99.90;;;;;;4995658;28;20535;-71
2024/02/18 08:13:51;;;;;;;14.70;13.07;;;9.90;99.90;;;;;;4995873;28;20743;-71
2024/02/18 08:16:18;;;;;;;16.30;14.53;;;10.00;99.90;;;;;;4995273;28;20989;-71
2024/02/18 08:18:44;;;;;;;16.07;14.47;;;10.20;99.90;;;;;;4995039;28;20463;-71
2024/02/18 08:21:10;;;;;;;17.37;15.13;;;10.30;99.90;;;;;;4995495;28;20416;-71
2024/02/18 08:23:35;;;;;;;16.57;14.80;;;10.30;99.90;;;;;;4994694;28;20180;-71
2024/02/18 08:26:01;;;;;;;16.03;14.50;;;10.30;99.90;;;;;;4995769;28;20703;-71
2024/02/18 08:28:27;;;;;;;15.90;14.27;;;10.40;99.90;;;;;;4995995;28;20224;-71
2024/02/18 08:30:53;;;;;;;67.83;47.03;;;10.40;99.90;;;;;;4998445;28;20178;-71
2024/02/18 08:33:18;;;;;;;64.50;45.20;;;10.50;99.90;;;;;;4996081;28;20412;-70
2024/02/18 08:35:44;;;;;;;14.30;12.90;;;10.50;99.90;;;;;;4996221;28;20178;-72
2024/02/18 08:38:10;;;;;;;15.50;13.97;;;10.40;99.90;;;;;;4995887;28;20226;-71
2024/02/18 08:40:36;;;;;;;14.17;12.67;;;10.50;99.90;;;;;;4995064;28;20325;-72
2024/02/18 08:43:02;;;;;;;24.67;21.40;;;10.40;99.90;;;;;;4994707;28;20188;-72
2024/02/18 08:45:30;;;;;;;61.07;42.73;;;10.60;99.90;;;;;;4994850;28;20185;-72
2024/02/18 08:47:56;;;;;;;62.90;46.23;;;11.00;99.90;;;;;;4994659;28;20463;-72
2024/02/18 08:50:22;;;;;;;19.40;17.27;;;11.10;99.90;;;;;;4994690;28;20412;-72
2024/02/18 08:52:47;;;;;;;15.67;14.00;;;11.40;99.90;;;;;;4993124;28;21018;-72
2024/02/18 08:55:13;;;;;;;13.97;12.00;;;11.50;99.90;;;;;;4994450;28;20423;-72
2024/02/18 08:57:38;;;;;;;14.03;12.73;;;11.60;99.90;;;;;;4993377;28;20201;-72
2024/02/18 09:00:07;;;;;;;22.40;20.07;;;11.40;99.90;;;;;;4994724;28;20177;-72
2024/02/18 09:02:32;;;;;;;15.63;13.73;;;11.40;99.90;;;;;;4994672;28;20177;-72
2024/02/18 09:04:59;;;;;;;26.93;23.97;;;11.50;99.90;;;;;;4994163;28;20414;-71
2024/02/18 09:07:26;;;;;;;22.60;18.40;;;11.30;99.90;;;;;;4994093;28;20208;-72
2024/02/18 09:09:51;;;;;;;14.77;13.20;;;11.60;99.90;;;;;;4994352;28;20408;-72
2024/02/18 09:12:17;;;;;;;21.93;19.63;;;11.90;99.90;;;;;;4993055;28;20956;-73
2024/02/18 09:14:43;;;;;;;52.50;39.40;;;12.30;99.90;;;;;;4994319;28;20179;-72
2024/02/18 09:17:08;;;;;;;26.97;22.00;;;12.60;99.90;;;;;;4994303;28;20192;-72
2024/02/18 09:19:34;;;;;;;16.73;14.93;;;12.90;99.90;;;;;;4994466;28;20192;-72
2024/02/18 09:22:00;;;;;;;21.73;16.00;;;13.10;99.90;;;;;;4994367;28;20228;-73
2024/02/18 09:24:25;;;;;;;15.07;13.50;;;12.70;99.90;;;;;;4994298;28;20177;-72
2024/02/18 09:26:51;;;;;;;39.07;33.07;;;12.30;99.90;;;;;;4993947;28;20190;-73
2024/02/18 09:29:16;;;;;;;15.67;14.17;;;12.40;99.90;;;;;;4994161;28;20176;-72
2024/02/18 09:31:42;;;;;;;16.87;15.07;;;12.60;99.90;;;;;;4993910;28;20543;-72
2024/02/18 09:34:08;;;;;;;23.53;21.07;;;12.50;99.90;;;;;;4994110;28;20172;-72
2024/02/18 09:36:34;;;;;;;14.40;13.00;;;12.50;99.90;;;;;;4993743;28;20605;-72
2024/02/18 09:39:00;;;;;;;14.57;13.13;;;12.60;99.90;;;;;;4993779;28;20462;-72
2024/02/18 09:41:27;;;;;;;15.40;13.90;;;12.80;99.90;;;;;;4993830;28;20635;-72
2024/02/18 09:43:58;;;;;;;13.33;11.10;;;13.10;99.90;;;;;;4992797;28;20209;-71
2024/02/18 09:46:24;;;;;;;39.10;29.10;;;13.10;99.90;;;;;;4993900;28;20464;-72
2024/02/18 09:48:50;;;;;;;13.53;11.70;;;13.60;99.90;;;;;;4994209;28;20967;-72
2024/02/18 09:51:17;;;;;;;12.13;10.83;;;14.00;99.90;;;;;;4993551;28;20434;-72
2024/02/18 09:53:45;;;;;;;12.33;11.10;;;14.20;99.90;;;;;;4993963;28;20587;-71
2024/02/18 09:56:10;;;;;;;9.70;8.70;;;14.30;99.90;;;;;;4993607;28;20759;-72
2024/02/18 09:58:36;;;;;;;7.73;6.97;;;14.40;99.90;;;;;;4993533;28;20472;-72
2024/02/18 10:01:02;;;;;;;6.53;5.83;;;14.70;99.90;;;;;;4992345;28;20181;-72
2024/02/18 10:03:27;;;;;;;6.77;6.07;;;15.00;99.90;;;;;;4993502;28;20182;-72
2024/02/18 10:05:54;;;;;;;7.10;6.40;;;14.70;99.90;;;;;;4993888;28;20238;-72
2024/02/18 10:08:20;;;;;;;12.27;10.23;;;14.70;99.90;;;;;;4993307;28;20464;-72
2024/02/18 10:10:46;;;;;;;9.43;8.57;;;14.60;99.90;;;;;;4993694;28;20497;-72
2024/02/18 10:13:12;;;;;;;11.73;10.57;;;14.60;99.90;;;;;;4993588;28;20181;-71
2024/02/18 10:15:37;;;;;;;25.67;23.10;;;14.10;99.90;;;;;;4993493;28;20427;-73
2024/02/18 10:18:05;;;;;;;10.20;9.20;;;14.00;99.90;;;;;;4993371;28;20211;-72
2024/02/18 10:20:31;;;;;;;7.73;7.00;;;14.30;99.90;;;;;;4993440;28;20275;-71
2024/02/18 10:22:56;;;;;;;7.57;6.87;;;14.60;99.90;;;;;;4992930;28;20444;-71
2024/02/18 10:25:22;;;;;;;8.27;7.27;;;14.70;99.90;;;;;;4993317;28;20263;-72
2024/02/18 10:27:47;;;;;;;14.07;12.70;;;14.90;99.90;;;;;;4993178;28;20269;-72
2024/02/18 10:30:13;;;;;;;7.27;6.53;;;14.80;99.90;;;;;;4993897;28;20167;-71
2024/02/18 10:32:39;;;;;;;7.67;6.50;;;14.80;99.90;;;;;;4993344;28;20351;-73
2024/02/18 10:35:05;;;;;;;8.13;6.80;;;14.70;99.90;;;;;;4993347;28;20408;-72
2024/02/18 10:37:37;;;;;;;7.30;6.60;;;14.90;99.90;;;;;;4993472;28;20203;-72
2024/02/18 10:40:32;;;;;;;6.90;6.30;;;14.80;99.90;;;;;;4993498;28;20465;-72
2024/02/18 10:43:01;;;;;;;6.73;6.13;;;15.20;99.90;;;;;;4992666;28;20932;-71
2024/02/18 10:45:27;;;;;;;6.53;5.90;;;15.30;99.90;;;;;;4993767;28;20837;-73
2024/02/18 10:47:54;;;;;;;7.23;5.53;;;15.50;99.90;;;;;;4995375;28;20538;-72
2024/02/18 10:50:24;;;;;;;5.87;5.20;;;15.50;99.90;;;;;;4997642;28;20423;-73
2024/02/18 10:52:59;;;;;;;5.27;4.87;;;15.80;99.90;;;;;;4997171;28;20778;-72
2024/02/18 10:55:38;;;;;;;5.97;5.37;;;15.90;99.90;;;;;;4996764;28;20886;-72
2024/02/18 10:58:16;;;;;;;6.30;5.70;;;15.80;99.90;;;;;;4996893;28;20436;-72
2024/02/18 11:00:45;;;;;;;5.00;4.50;;;16.00;99.90;;;;;;4996869;28;20400;-71
2024/02/18 11:03:51;;;;;;;6.00;5.20;;;16.20;99.90;;;;;;4996505;28;20987;-72
2024/02/18 11:06:17;;;;;;;6.23;5.60;;;16.60;99.90;;;;;;4996633;28;20929;-72
2024/02/18 11:08:44;;;;;;;5.30;4.80;;;16.40;99.90;;;;;;4996373;28;20926;-71
2024/02/18 11:11:12;;;;;;;5.77;5.20;;;16.20;99.90;;;;;;4996378;28;20416;-71
2024/02/18 11:13:39;;;;;;;6.10;5.50;;;16.20;99.90;;;;;;4996419;28;20404;-72
2024/02/18 11:16:06;;;;;;;6.93;6.23;;;16.20;99.90;;;;;;4996585;28;20419;-72
2024/02/18 11:18:32;;;;;;;5.73;4.70;;;16.10;99.90;;;;;;5019412;23;20490;-68
2024/02/18 11:20:58;;;;;;;6.80;6.10;;;16.40;99.90;;;;;;4996647;28;20431;-68
2024/02/18 11:23:24;;;;;;;9.97;9.03;;;16.40;99.80;;;;;;4996910;28;20408;-69
2024/02/18 11:25:50;;;;;;;5.40;4.73;;;15.70;99.90;;;;;;4995262;28;20779;-69
2024/02/18 11:28:17;;;;;;;5.00;4.50;;;15.80;99.90;;;;;;4996390;28;20204;-69
2024/02/18 11:30:42;;;;;;;5.87;5.30;;;15.60;99.90;;;;;;4996315;28;20412;-69
2024/02/18 11:33:08;;;;;;;5.70;5.07;;;15.60;99.90;;;;;;4996502;28;20403;-69
2024/02/18 11:35:34;;;;;;;7.47;5.33;;;15.90;99.90;;;;;;4996224;28;20465;-68
2024/02/18 11:38:01;;;;;;;11.77;9.80;;;16.10;99.90;;;;;;4996153;28;20185;-68
2024/02/18 11:40:27;;;;;;;6.30;5.70;;;16.50;99.90;;;;;;4996428;28;20173;-68
2024/02/18 11:42:54;;;;;;;4.47;3.57;;;16.50;99.90;;;;;;4996149;28;20871;-68
2024/02/18 11:45:20;;;;;;;4.63;4.23;;;16.30;99.70;;;;;;4995878;28;20187;-68
2024/02/18 11:47:48;;;;;;;4.10;3.70;;;16.50;99.70;;;;;;4995652;28;21004;-69
2024/02/18 11:50:15;;;;;;;5.77;4.37;;;16.50;99.00;;;;;;4994515;28;20423;-68
2024/02/18 11:52:46;;;;;;;4.37;3.77;;;16.60;99.00;;;;;;4995796;28;20451;-69
2024/02/18 11:55:18;;;;;;;3.63;3.33;;;17.00;99.60;;;;;;4995749;28;20891;-72
2024/02/18 11:57:44;;;;;;;4.07;3.67;;;17.00;98.10;;;;;;4995438;28;20434;-69
2024/02/18 12:00:14;;;;;;;4.47;3.83;;;17.00;98.00;;;;;;4994508;28;20499;-68
2024/02/18 12:02:41;;;;;;;4.23;3.73;;;17.00;97.50;;;;;;4995681;28;20408;-68
2024/02/18 12:05:10;;;;;;;4.60;3.70;;;16.80;98.00;;;;;;4995287;28;20416;-69
2024/02/18 12:07:38;;;;;;;3.90;3.50;;;17.10;98.70;;;;;;4995686;28;20455;-69
2024/02/18 12:10:04;;;;;;;4.23;3.83;;;17.30;97.80;;;;;;4995264;28;20412;-69
2024/02/18 12:12:31;;;;;;;4.20;3.80;;;17.60;97.20;;;;;;4995669;28;20503;-69
2024/02/18 12:14:57;;;;;;;5.20;4.07;;;17.30;97.40;;;;;;4995490;28;20400;-69
2024/02/18 12:17:23;;;;;;;4.20;3.80;;;17.20;97.80;;;;;;4995109;28;20918;-69
2024/02/18 12:19:52;;;;;;;4.57;4.10;;;17.00;98.00;;;;;;4995319;28;20454;-68
2024/02/18 12:22:27;;;;;;;5.97;3.43;;;17.30;97.60;;;;;;4995086;28;20408;-67
2024/02/18 12:24:53;;;;;;;6.77;4.50;;;17.20;97.00;;;;;;4993988;28;20416;-69
2024/02/18 12:27:20;;;;;;;5.00;3.77;;;16.40;97.60;;;;;;4995399;28;20446;-69
2024/02/18 12:29:47;;;;;;;4.67;4.17;;;16.50;98.40;;;;;;4995254;28;20404;-68
2024/02/18 12:32:13;;;;;;;3.97;3.60;;;16.20;98.10;;;;;;4995154;28;20400;-69
2024/02/18 12:34:41;;;;;;;9.20;4.70;;;16.40;98.90;;;;;;4995036;28;20889;-69
2024/02/18 12:37:07;;;;;;;4.77;4.20;;;16.50;98.20;;;;;;4995035;28;20929;-68